• Join FlightAware (Why Join?)
  • Login
  • US Flag 
03:52PM EDT


 

Airport Tracker/Info


-or-


 

Live Flight TrackerFlight Track Log ✈ FDX916 ✈ 12-Apr-2013 ✈ KMEM - KELP

Flight Track Log - Related Links

Times and Time Zones

All times are in EDT time to prevent confusion due to time zone crossing. See the FDX916 flight status page for this flight to view local times or setup timezone preferences in your user account.

Time Position Orientation Groundspeed Altitude Reporting Facility
EDT Latitude Longitude Course Direction KTS MPH feet Rate Location/Type
05:51PM 35.0333 -89.9667 192° South 162 186 900  Level KMEM
05:52PM 34.9667 -89.9833 192° South 218 251 2,500 2,040 Climbing KMEM
05:53PM 34.9667 -90.0500 270° West 251 289 5,000 3,180 Climbing KMEM
05:54PM 34.9500 -90.1333 256° West 244 281 8,600 2,880 Climbing KMEM
05:55PM 34.9500 -90.2167 270° West 253 291 10,500 1,440 Climbing KMEM
05:56PM 34.9447 -90.2658 263° West 321 369 10,600 1,440 Climbing Memphis Center
05:57PM 34.9364 -90.3800 265° West 378 435 12,700 2,460 Climbing Memphis Center
05:58PM 34.9239 -90.4989 263° West 367 422 15,600 2,460 Climbing Memphis Center
05:59PM 34.9047 -90.6181 259° West 362 417 17,700 2,100 Climbing Memphis Center
06:00PM 34.8817 -90.7419 257° West 373 429 19,900 2,220 Climbing Memphis Center
06:01PM 34.8394 -90.8656 247° West 373 429 22,200 1,500 Climbing Memphis Center
06:02PM 34.7950 -90.9767 244° Southwest 368 423 23,000 660 Climbing Memphis Center
06:03PM 34.7672 -91.0953 254° West 368 423 23,600 900 Climbing Memphis Center
06:04PM 34.7478 -91.2164 259° West 368 423 24,800 1,440 Climbing Memphis Center
06:05PM 34.7239 -91.3425 257° West 381 438 26,500 1,380 Climbing Memphis Center
06:06PM 34.7000 -91.4686 257° West 381 438 27,600 1,080 Climbing Memphis Center
06:07PM 34.6778 -91.6022 259° West 395 455 28,700 900 Climbing Memphis Center
06:08PM 34.6536 -91.7153 255° West 395 455 29,500 1,080 Climbing Memphis Center
06:09PM 34.6269 -91.8589 257° West 395 455 30,900 1,320 Climbing Memphis Center
06:10PM 34.6025 -91.9897 257° West 395 455 32,200 1,200 Climbing Memphis Center
06:11PM 34.5778 -92.1178 257° West 395 455 33,400 1,080 Climbing Memphis Center
06:12PM 34.5508 -92.2483 256° West 390 449 34,400 960 Climbing Memphis Center
06:13PM 34.5281 -92.3714 257° West 390 449 35,400 780 Climbing Memphis Center
06:14PM 34.5050 -92.4944 257° West 390 449 36,000 300 Climbing Memphis Center
06:15PM 34.4797 -92.6247 257° West 390 449 36,000  Level Memphis Center
06:16PM 34.4544 -92.7550 257° West 390 449 36,000  Level Memphis Center
06:17PM 34.4311 -92.8778 257° West 390 449 36,000  Level Memphis Center
06:18PM 34.4056 -93.0078 257° West 395 455 36,000  Level Memphis Center
06:19PM 34.3778 -93.1353 255° West 395 455 36,000  Level Memphis Center
06:25PM 34.2200 -93.9160 255° West 391 450 36,000  Level FlightAware
06:26PM 34.1980 -94.0240 256° West 389 448 36,000  Level FlightAware
06:26PM 34.1840 -94.0920 256° West 389 448 36,000  Level FlightAware
06:27PM 34.1690 -94.1640 256° West 389 448 36,000  Level FlightAware
06:28PM 34.1500 -94.2530 256° West 389 448 36,000  Level FlightAware
06:28PM 34.1280 -94.3590 256° West 390 449 36,000  Level FlightAware
06:29PM 34.1090 -94.4450 255° West 390 449 36,000  Level FlightAware
06:30PM 34.0870 -94.5510 256° West 390 449 36,000  Level FlightAware
06:30PM 34.0740 -94.6120 256° West 390 449 36,000  Level FlightAware
06:31PM 34.0560 -94.6990 256° West 390 449 36,000  Level FlightAware
06:32PM 34.0590 -94.7870 272° West 394 453 36,000  Level FlightAware
06:32PM 34.0660 -94.8850 275° West 394 453 36,000  Level FlightAware
06:33PM 34.0720 -94.9700 275° West 394 453 36,000  Level FlightAware
06:34PM 34.0560 -95.0690 259° West 391 450 36,000  Level FlightAware
06:34PM 34.0370 -95.1550 255° West 391 450 36,000  Level FlightAware
06:35PM 34.0180 -95.2350 254° West 391 450 36,000  Level FlightAware
06:36PM 33.9950 -95.3330 254° West 391 450 36,000  Level FlightAware
06:37PM 33.9760 -95.4170 255° West 391 450 36,000  Level FlightAware
06:37PM 33.9540 -95.5090 254° West 391 450 36,000  Level FlightAware
06:38PM 33.9340 -95.5950 254° West 391 450 36,000  Level FlightAware
06:39PM 33.9150 -95.6770 254° West 391 450 36,000  Level FlightAware
06:39PM 33.8920 -95.7720 254° West 392 451 36,000  Level FlightAware
06:40PM 33.8730 -95.8560 255° West 391 450 36,000  Level FlightAware
06:41PM 33.8500 -95.9500 254° West 392 451 36,000  Level FlightAware
06:41PM 33.8300 -96.0340 254° West 393 452 36,000  Level FlightAware
06:42PM 33.8090 -96.1220 254° West 393 452 36,000  Level FlightAware
06:43PM 33.7870 -96.2150 254° West 393 452 36,000  Level FlightAware
06:44PM 33.7670 -96.2990 254° West 393 452 36,000  Level FlightAware
06:44PM 33.7460 -96.3820 253° West 392 451 36,000  Level FlightAware
06:45PM 33.7240 -96.4720 254° West 392 451 36,000  Level FlightAware
06:46PM 33.7040 -96.5580 254° West 392 451 36,000  Level FlightAware
06:46PM 33.6810 -96.6520 254° West 391 450 36,000  Level FlightAware
06:47PM 33.6600 -96.7350 253° West 391 450 36,000  Level FlightAware
06:48PM 33.6370 -96.8270 253° West 392 451 36,000  Level FlightAware
06:48PM 33.6160 -96.9120 253° West 391 450 36,000  Level FlightAware
06:49PM 33.5960 -96.9960 254° West 392 451 36,000  Level FlightAware
06:50PM 33.5720 -97.0920 253° West 393 452 36,000  Level FlightAware
06:51PM 33.5520 -97.1730 254° West 393 452 36,000  Level FlightAware
06:51PM 33.5310 -97.2540 253° West 392 451 36,000  Level FlightAware
06:52PM 33.4992 -97.3886 253° West 400 460 36,000  Level Fort Worth Center
06:53PM 33.4700 -97.5131 254° West 400 460 36,000  Level Fort Worth Center
06:59PM 33.2820 -98.2300 254° West 399 459 36,000  Level FlightAware
07:00PM 33.2600 -98.3140 253° West 401 461 36,000  Level FlightAware
07:00PM 33.2350 -98.4110 253° West 402 463 36,000  Level FlightAware
07:01PM 33.2150 -98.4870 253° West 401 461 36,000  Level FlightAware
07:02PM 33.1880 -98.5880 252° West 399 459 36,000  Level FlightAware
07:03PM 33.1620 -98.6880 253° West 399 459 36,000  Level FlightAware
07:03PM 33.1350 -98.7900 252° West 398 458 36,000  Level FlightAware
07:04PM 33.1110 -98.8800 252° West 398 458 36,000  Level FlightAware
07:05PM 33.0900 -98.9620 253° West 398 458 36,000  Level FlightAware
07:05PM 33.0710 -99.0300 252° West 398 458 36,000  Level FlightAware
07:06PM 33.0420 -99.1420 253° West 399 459 36,000  Level FlightAware
07:07PM 33.0180 -99.2280 252° West 399 459 36,000  Level FlightAware
07:08PM 32.9960 -99.3120 253° West 398 458 36,000  Level FlightAware
07:08PM 32.9700 -99.4080 252° West 401 461 36,000  Level FlightAware
07:09PM 32.9480 -99.4860 251° West 402 463 36,000  Level FlightAware
07:10PM 32.9220 -99.5850 253° West 402 463 36,000  Level FlightAware
07:10PM 32.8990 -99.6690 252° West 402 463 36,000  Level FlightAware
07:11PM 32.8720 -99.7640 251° West 403 464 36,000  Level FlightAware
07:12PM 32.8410 -99.8720 251° West 404 465 36,000  Level FlightAware
07:13PM 32.8210 -99.9440 252° West 404 465 36,000  Level FlightAware
07:13PM 32.8000 -100.0150 251° West 404 465 36,000  Level FlightAware
07:14PM 32.7680 -100.1430 253° West 401 461 36,000  Level FlightAware
07:15PM 32.7450 -100.2250 252° West 400 460 36,000  Level FlightAware
07:16PM 32.7170 -100.3210 251° West 402 463 36,000  Level FlightAware
07:16PM 32.6940 -100.4050 252° West 404 465 36,000  Level FlightAware
07:17PM 32.6710 -100.4890 252° West 403 464 36,000  Level FlightAware
07:18PM 32.6470 -100.5750 252° West 402 463 36,000  Level FlightAware
07:19PM 32.6130 -100.6910 251° West 403 464 36,000  Level FlightAware
07:19PM 32.5920 -100.7620 251° West 403 464 36,000  Level FlightAware
07:20PM 32.5640 -100.8640 252° West 404 465 36,000  Level FlightAware
07:21PM 32.5380 -100.9550 251° West 404 465 36,000  Level FlightAware
07:21PM 32.5090 -101.0570 251° West 404 465 36,000  Level FlightAware
07:22PM 32.4860 -101.1390 252° West 404 465 36,000  Level FlightAware
07:23PM 32.4580 -101.2330 251° West 405 466 36,000  Level FlightAware
07:23PM 32.4340 -101.3200 252° West 405 466 36,000  Level FlightAware
07:24PM 32.4060 -101.4140 251° West 405 466 36,000  Level FlightAware
07:25PM 32.3840 -101.4990 253° West 407 468 36,000  Level FlightAware
07:26PM 32.3730 -101.5870 262° West 409 471 36,000  Level FlightAware
07:26PM 32.3610 -101.6840 262° West 409 471 36,000  Level FlightAware
07:27PM 32.3500 -101.7730 262° West 409 471 36,000  Level FlightAware
07:28PM 32.3370 -101.8720 261° West 409 471 36,000  Level FlightAware
07:28PM 32.3260 -101.9550 261° West 409 471 36,000  Level FlightAware
07:29PM 32.3160 -102.0310 261° West 409 471 36,000  Level FlightAware
07:30PM 32.2980 -102.1770 262° West 410 472 36,000  Level FlightAware
07:31PM 32.2880 -102.2520 261° West 410 472 36,000  Level FlightAware
07:31PM 32.2770 -102.3280 260° West 410 472 36,000  Level FlightAware
07:32PM 32.2670 -102.4030 261° West 410 472 36,000  Level FlightAware
07:33PM 32.2570 -102.4790 261° West 410 472 36,000  Level FlightAware
07:34PM 32.2450 -102.5730 261° West 410 472 36,000  Level FlightAware
07:34PM 32.2350 -102.6480 261° West 410 472 36,000  Level FlightAware
07:35PM 32.2240 -102.7230 260° West 410 472 36,000  Level FlightAware
07:36PM 32.2140 -102.7990 261° West 410 472 36,000  Level FlightAware
07:36PM 32.2040 -102.8740 261° West 410 472 36,000  Level FlightAware
07:37PM 32.1940 -102.9490 261° West 410 472 36,000  Level FlightAware
07:38PM 32.1820 -103.0430 261° West 410 472 36,000  Level FlightAware
07:38PM 32.1710 -103.1180 260° West 410 472 36,000  Level FlightAware
07:39PM 32.1610 -103.1940 261° West 410 472 36,000  Level FlightAware
07:40PM 32.1283 -103.4294 261° West 408 470 36,000  Level Albuquerque Center
07:41PM 32.1100 -103.5614 261° West 408 470 36,000  Level Albuquerque Center
07:42PM 32.0925 -103.6956 261° West 410 472 36,000  Level Albuquerque Center
07:43PM 32.0733 -103.8283 260° West 412 474 36,000  Level Albuquerque Center
07:44PM 32.0547 -103.9608 261° West 411 473 36,000 -60 Level Albuquerque Center
07:45PM 32.0358 -104.0928 260° West 413 475 35,900 -60 Descending Albuquerque Center
07:46PM 32.0114 -104.2536 260° West 417 480 35,900  Level Albuquerque Center
07:47PM 31.9928 -104.3886 261° West 419 482 36,000  Climbing Albuquerque Center
07:48PM 31.9767 -104.5242 262° West 419 482 36,000 -1,080 Level Albuquerque Center
07:49PM 31.9628 -104.6581 263° West 416 479 33,900 -2,640 Descending Albuquerque Center
07:50PM 31.9486 -104.7881 263° West 409 471 30,700 -2,880 Descending Albuquerque Center
07:51PM 31.9350 -104.9197 263° West 407 468 28,100 -2,700 Descending Albuquerque Center
07:52PM 31.9197 -105.0694 263° West 394 453 25,200 -2,700 Descending Albuquerque Center
07:53PM 31.9083 -105.1872 264° West 376 433 22,600 -2,460 Descending Albuquerque Center
07:54PM 31.8950 -105.3031 262° West 364 419 20,200 -2,280 Descending Albuquerque Center
07:55PM 31.8847 -105.3833 261° West 350 403 18,800 -2,280 Descending Albuquerque Center
07:55PM 31.8825 -105.4172 266° West 354 407 17,900 -2,580 Descending Albuquerque Center
07:55PM 31.8764 -105.4631 261° West 349 402 17,000 -2,340 Descending Albuquerque Center
07:56PM 31.8753 -105.5342 269° West 361 415 15,500 -2,400 Descending Albuquerque Center
07:56PM 31.8708 -105.5822 264° West 366 421 14,600 -2,280 Descending Albuquerque Center
07:57PM 31.8744 -105.6514 274° West 360 414 13,200 -2,220 Descending Albuquerque Center
07:57PM 31.8731 -105.6969 268° West 359 413 12,400 -1,800 Descending Albuquerque Center
07:58PM 31.8739 -105.7661 271° West 353 406 11,400 -1,260 Descending Albuquerque Center
07:58PM 31.8728 -105.8097 268° West 340 391 11,100 -1,080 Descending Albuquerque Center
07:59PM 31.8717 -105.8883 269° West 312 359 10,300 -1,140 Descending Albuquerque Center
07:59PM 31.8725 -105.9125 272° West 285 328 10,000 -1,020 Descending Albuquerque Center
08:00PM 31.8703 -105.9786 268° West 281 323 9,300 -900 Descending Albuquerque Center
08:01PM 31.8642 -106.0667 265° West 273 314 8,400 -960 Descending Albuquerque Center
08:02PM 31.8583 -106.1489 265° West 256 295 7,400 -1,080 Descending Albuquerque Center
08:03PM 31.8578 -106.2272 270° West 242 278 6,300 -960 Descending Albuquerque Center
08:04PM 31.8569 -106.2978 269° West 220 253 5,500 -960 Descending Albuquerque Center
08:05PM 31.8394 -106.3486 248° West 137 158 4,500 -780 Descending Albuquerque Center
08:06PM 31.8147 -106.3797 227° Southwest 143 165 3,900 -540 Descending Albuquerque Center
08:08PM 31.8072 -106.3764 270° West  Level Estimated
08:15PM 31.8072 -106.3764 270° West  Level Estimated
08:16PM 31.8072 -106.3764 270° West  Level Estimated
08:17PM 31.8072 -106.3764 270° West  Level Estimated
08:18PM 31.8072 -106.3764 270° West  Level Estimated